Rechercher aéroport 
image banner adimage banner adimage banner ad
image banner ad

10CL - Centerport

Situé à Costa Mesa, United States

ICAO - 10CL, IATA -

Données fournies par Airmate  

Information générale

Coordonnées: N33°40'18" W117°52'29"
Élévation : 83 feet MSL.
 
Voir autres Aéroports à California

Données opérationnelles

Special qualification required
Heure actuelle UTC:
Heure actuelle locale:
METAR: KSNA 251253Z 23003KT 10SM OVC014 21/16 A2996 RMK AO2 SLP144 T02060161
TAF: KSNA 251141Z 2512/2612 VRB04KT P6SM SCT015 BKN120 TEMPO 2512/2516 BKN015 FM251900 22009KT P6SM FEW010 OVC120 FM260300 VRB05KT P6SM SCT015 OVC120 FM260800 VRB05KT P6SM VCSH BKN015 OVC100
Voir NOTAMs / SUP AIP / TFR affectant cet aéroport [VIEW]
Fréquences de communication: [VIEW]

Pistes:

Coordonnées de l'aéroport

Adresse: Costa Mesa United States

Vue satellite de 10CL